KLVM/LVM METAR and TAF weather

Enter ICAO airport designator
Station Type Date Time Source
KLVM METAR 2019/06/16 11:53 UTC NOAA

KLVM 161153Z AUTO 23007KT 10SM SCT110 11/09 A3007 RMK AO2 RAE1055 SLP151 P0000 60000 T01060089 10156 20100 53004 $


Station Type Date Time Source
KLVM Decoded METAR 2019/06/16 11:53 UTC NOAA

LIVINGSTON MISSION FIELD, MT, United States (KLVM) 45-42N 110-26W 1418M
Jun 16, 2019 - 07:53 AM EDT / 2019.06.16 1153 UTC
Wind: from the SW (230 degrees) at 8 MPH (7 KT):0
Visibility: 10 mile(s):0
Sky conditions: partly cloudy
Precipitation last hour: A trace
Temperature: 51.1 F (10.6 C)
Dew Point: 48.0 F (8.9 C)
Relative Humidity: 89%
Pressure (altimeter): 30.07 in. Hg (1018 hPa)
Pressure tendency: 0.01 inches (0.4 hPa) higher than three hours ago
ob: KLVM 161153Z AUTO 23007KT 10SM SCT110 11/09 A3007 RMK AO2 RAE1055 SLP151 P0000 60000 T01060089 10156 20100 53004
cycle: 12

Station Type Date Time Source
KLVM TAF 2019/06/16 12:27 UTC NOAA

TAF KLVM 161124Z 1612/1712 18005KT P6SM VCSH FEW070 BKN090
FM161800 07009KT P6SM VCSH BKN050 OVC100
FM170500 13007KT P6SM SCT060

Example: see airport list